Terminal Aerodrome Forecast
Issued by NWS Bismarck, ND

Home | Current Version | Previous Version | Graphics & Text | Print | Product List | Glossary On
Versions: 1 2 3 4 5 6 7 8 9 10 11 12 13 14 15 16 17
000
FTUS43 KBIS 300308 AAA
TAFBIS
TAF AMD
KBIS 300308Z 3003/3024 16006KT 4SM FU SCT250
     FM301500 14006KT P6SM SCT250
     FM301700 18011KT P6SM FEW250=

USA.gov is the U.S. government's official web portal to all federal, state and local government web resources and services.